Time;durP1;ratioP1;P1;durP2;ratioP2;P2;SDS_P1;SDS_P2;PMS_P1;PMS_P2;Temp;Humidity;BMP_temperature;BMP_pressure;BME280_temperature;BME280_humidity;BME280_pressure;Samples;Min_cycle;Max_cycle;Signal;HPM_P1;HPM_P2
2021/04/28 00:00:04;;;;;;;11.00;6.95;;;4.70;99.90;;;;;;4160812;28;20041;-80
2021/04/28 00:02:04;;;;;;;13.93;7.68;;;4.70;99.90;;;;;;4137338;28;20485;-80
2021/04/28 00:04:06;;;;;;;10.57;7.38;;;4.60;99.90;;;;;;4161051;28;20036;-79
2021/04/28 00:06:07;;;;;;;7.97;6.72;;;4.60;99.90;;;;;;4143899;28;20026;-80
2021/04/28 00:08:08;;;;;;;11.68;6.63;;;4.60;99.90;;;;;;4146480;28;20392;-80
2021/04/28 00:10:12;;;;;;;10.82;7.05;;;4.50;99.90;;;;;;4160178;28;20575;-80
2021/04/28 00:12:13;;;;;;;9.05;7.47;;;4.40;99.90;;;;;;4139193;28;20042;-81
2021/04/28 00:14:14;;;;;;;9.18;6.90;;;4.40;99.90;;;;;;4143283;28;20040;-81
2021/04/28 00:16:19;;;;;;;12.63;7.15;;;4.30;99.90;;;;;;4145002;28;20049;-80
2021/04/28 00:18:20;;;;;;;11.00;7.70;;;4.20;99.90;;;;;;4141363;28;20049;-80
2021/04/28 00:20:24;;;;;;;12.82;7.78;;;4.00;99.90;;;;;;4143633;28;20417;-80
2021/04/28 00:22:25;;;;;;;;;;;4.00;99.90;;;;;;4162990;28;20176;-81
2021/04/28 00:24:26;;;;;;;8.57;6.82;;;3.90;99.90;;;;;;4147320;28;19921;-81
2021/04/28 00:26:27;;;;;;;12.73;8.32;;;3.90;99.90;;;;;;4163973;28;20508;-81
2021/04/28 00:28:28;;;;;;;10.52;7.32;;;3.80;99.90;;;;;;4148762;28;20026;-81
2021/04/28 00:30:28;;;;;;;8.35;6.95;;;3.90;99.90;;;;;;4147423;28;20153;-81
2021/04/28 00:32:29;;;;;;;10.02;7.47;;;3.90;99.90;;;;;;4147207;28;20034;-81
2021/04/28 00:34:30;;;;;;;12.63;7.00;;;3.90;99.90;;;;;;4147618;28;20030;-80
2021/04/28 00:36:31;;;;;;;8.68;7.35;;;3.90;99.90;;;;;;4147445;28;20033;-80
2021/04/28 00:38:33;;;;;;;9.10;7.00;;;3.80;99.90;;;;;;4145857;28;20386;-80
2021/04/28 00:40:39;;;;;;;9.50;7.13;;;3.70;99.90;;;;;;4146187;28;20464;-80
2021/04/28 00:42:44;;;;;;;8.82;7.93;;;3.60;99.90;;;;;;4145904;28;20305;-80
2021/04/28 00:44:45;;;;;;;12.00;8.02;;;3.70;99.90;;;;;;4136351;28;20095;-82
2021/04/28 00:46:46;;;;;;;9.18;7.47;;;3.40;99.90;;;;;;4146792;28;20072;-80
2021/04/28 00:48:47;;;;;;;11.07;7.35;;;3.40;99.90;;;;;;4162197;28;20504;-81
2021/04/28 00:50:49;;;;;;;11.55;7.15;;;3.30;99.90;;;;;;4147251;28;20108;-81
2021/04/28 00:52:51;;;;;;;10.45;8.65;;;3.20;99.90;;;;;;4146197;28;20438;-80
2021/04/28 00:54:52;;;;;;;11.40;7.63;;;3.10;99.90;;;;;;4143229;28;20536;-80
2021/04/28 00:56:56;;;;;;;13.00;8.82;;;3.10;99.90;;;;;;4129489;28;20041;-80
2021/04/28 00:58:57;;;;;;;10.18;7.65;;;3.00;99.90;;;;;;4146214;28;20026;-80
2021/04/28 01:00:58;;;;;;;10.40;8.07;;;3.00;99.90;;;;;;4147684;28;20026;-80
2021/04/28 01:02:59;;;;;;;8.68;7.38;;;3.00;99.90;;;;;;4147221;28;20030;-81
2021/04/28 01:05:04;;;;;;;9.55;7.90;;;3.10;99.90;;;;;;4162290;28;20435;-80
2021/04/28 01:07:06;;;;;;;17.70;8.65;;;3.20;99.90;;;;;;4145097;28;20155;-79
2021/04/28 01:09:07;;;;;;;10.18;7.90;;;3.10;99.90;;;;;;4145341;28;20030;-79
2021/04/28 01:11:08;;;;;;;9.27;7.00;;;3.10;99.90;;;;;;4159379;28;20596;-80
2021/04/28 01:13:09;;;;;;;11.88;7.32;;;3.10;99.90;;;;;;4145564;28;20030;-79
2021/04/28 01:15:22;;;;;;;13.50;8.52;;;3.10;99.90;;;;;;4162065;28;20542;-80
2021/04/28 01:17:23;;;;;;;13.07;8.70;;;3.10;99.90;;;;;;4146893;28;20046;-81
2021/04/28 01:19:25;;;;;;;10.50;8.63;;;3.00;99.90;;;;;;4146139;28;20366;-81
2021/04/28 01:21:26;;;;;;;10.05;7.63;;;3.00;99.90;;;;;;4146958;28;20033;-80
2021/04/28 01:23:29;;;;;;;13.70;8.73;;;2.90;99.90;;;;;;4163160;28;20060;-81
2021/04/28 01:25:31;;;;;;;14.30;9.00;;;2.90;99.90;;;;;;4146813;28;20057;-81
2021/04/28 01:27:34;;;;;;;9.32;8.05;;;2.80;99.90;;;;;;4146899;28;20056;-81
2021/04/28 01:29:35;;;;;;;12.25;8.20;;;2.80;99.90;;;;;;4146774;28;20037;-80
2021/04/28 01:31:37;;;;;;;12.38;8.32;;;2.70;99.90;;;;;;4160572;28;20029;-78
2021/04/28 01:33:42;;;;;;;12.00;8.70;;;2.70;99.90;;;;;;4146309;28;20065;-80
2021/04/28 01:35:46;;;;;;;16.48;8.85;;;2.70;99.90;;;;;;4152566;28;20079;-80
2021/04/28 01:37:47;;;;;;;;;;;2.70;99.90;;;;;;4163199;28;20129;-81
2021/04/28 01:39:51;;;;;;;10.60;8.50;;;2.60;99.90;;;;;;4146689;28;19920;-80
2021/04/28 01:41:52;;;;;;;11.40;8.60;;;2.60;99.90;;;;;;4162917;28;20087;-81
2021/04/28 01:43:54;;;;;;;10.05;7.82;;;2.60;99.90;;;;;;4162174;28;20042;-81
2021/04/28 01:45:56;;;;;;;15.15;8.20;;;2.50;99.90;;;;;;4145894;28;20508;-81
2021/04/28 01:47:56;;;;;;;10.25;8.48;;;2.50;99.90;;;;;;4146284;28;20034;-82
2021/04/28 01:49:58;;;;;;;13.05;8.52;;;2.50;99.90;;;;;;4137435;28;20121;-81
2021/04/28 01:52:00;;;;;;;11.15;9.10;;;2.50;99.90;;;;;;4146729;28;20032;-81
2021/04/28 01:54:09;;;;;;;9.55;8.15;;;2.50;99.90;;;;;;4158815;28;20591;-77
2021/04/28 01:56:10;;;;;;;14.88;8.50;;;2.60;99.90;;;;;;4162555;28;20064;-80
2021/04/28 01:58:12;;;;;;;14.30;7.70;;;2.80;99.90;;;;;;4134928;28;20473;-81
2021/04/28 02:00:19;;;;;;;10.95;8.30;;;2.90;99.90;;;;;;4129844;28;20060;-80
2021/04/28 02:02:21;;;;;;;11.60;8.55;;;2.90;99.90;;;;;;4156561;28;20137;-80
2021/04/28 02:04:22;;;;;;;11.85;8.05;;;3.00;99.90;;;;;;4161921;28;20046;-82
2021/04/28 02:06:24;;;;;;;10.80;7.68;;;2.90;99.90;;;;;;4162119;28;20029;-81
2021/04/28 02:08:25;;;;;;;11.55;7.60;;;2.90;99.90;;;;;;4162346;28;20045;-81
2021/04/28 02:10:26;;;;;;;9.32;7.90;;;2.90;99.90;;;;;;4162416;28;20126;-81
2021/04/28 02:12:28;;;;;;;12.02;8.15;;;2.90;99.90;;;;;;4162434;28;20041;-81
2021/04/28 02:14:31;;;;;;;19.10;8.82;;;2.80;99.90;;;;;;4162307;28;20041;-81
2021/04/28 02:16:37;;;;;;;14.30;9.38;;;2.70;99.90;;;;;;4162027;28;20061;-82
2021/04/28 02:18:41;;;;;;;13.27;8.50;;;2.60;99.90;;;;;;4146149;28;20081;-80
2021/04/28 02:20:43;;;;;;;11.20;8.10;;;2.50;99.90;;;;;;4146145;28;20041;-80
2021/04/28 02:22:44;;;;;;;11.02;9.75;;;2.40;99.90;;;;;;4156782;28;20396;-79
2021/04/28 02:24:46;;;;;;;12.27;9.45;;;2.30;99.90;;;;;;4146351;28;20519;-82
2021/04/28 02:26:54;;;;;;;12.18;9.10;;;2.20;99.90;;;;;;4145998;28;20160;-80
2021/04/28 02:28:54;;;;;;;14.85;10.07;;;2.20;99.90;;;;;;4135234;28;20105;-81
2021/04/28 02:30:55;;;;;;;13.77;8.50;;;2.10;99.90;;;;;;4162154;28;20536;-81
2021/04/28 02:32:56;;;;;;;14.77;10.10;;;2.00;99.90;;;;;;4147037;28;20030;-80
2021/04/28 02:34:57;;;;;;;14.00;9.60;;;2.00;99.90;;;;;;4147066;28;20041;-80
2021/04/28 02:36:59;;;;;;;11.10;9.10;;;2.00;99.90;;;;;;4162175;28;20068;-80
2021/04/28 02:39:16;;;;;;;17.48;9.60;;;2.00;99.90;;;;;;4162209;28;20033;-82
2021/04/28 02:41:17;;;;;;;13.55;9.07;;;2.00;99.90;;;;;;4145479;28;20030;-80
2021/04/28 02:43:19;;;;;;;12.27;10.25;;;1.90;99.90;;;;;;4145853;28;20030;-81
2021/04/28 02:45:22;;;;;;;14.35;9.82;;;1.90;99.90;;;;;;4156560;28;20030;-81
2021/04/28 02:47:26;;;;;;;10.07;8.17;;;1.60;99.90;;;;;;4146983;28;20468;-81
2021/04/28 02:49:28;;;;;;;12.15;9.10;;;2.10;99.90;;;;;;4132202;28;20030;-80
2021/04/28 02:51:31;;;;;;;12.73;9.77;;;2.00;99.90;;;;;;4162133;28;20076;-80
2021/04/28 02:53:34;;;;;;;14.18;9.20;;;2.00;99.90;;;;;;4147216;28;20593;-80
2021/04/28 02:55:35;;;;;;;15.43;9.50;;;1.90;99.90;;;;;;4143601;28;20056;-81
2021/04/28 02:57:36;;;;;;;17.70;9.50;;;1.90;99.90;;;;;;4143934;28;20042;-80
2021/04/28 02:59:37;;;;;;;11.55;8.75;;;1.90;99.90;;;;;;4140509;28;20483;-81
2021/04/28 03:01:40;;;;;;;22.63;10.60;;;1.90;99.90;;;;;;4144148;28;20413;-81
2021/04/28 03:03:41;;;;;;;12.05;8.35;;;2.10;99.90;;;;;;4145681;28;20029;-77
2021/04/28 03:05:42;;;;;;;14.00;8.80;;;2.10;99.90;;;;;;4144116;28;20116;-82
2021/04/28 03:07:44;;;;;;;11.75;8.48;;;2.00;99.90;;;;;;4144238;28;20042;-81
2021/04/28 03:09:45;;;;;;;11.35;8.38;;;2.10;99.90;;;;;;4144086;28;20044;-80
2021/04/28 03:11:46;;;;;;;13.70;8.35;;;2.10;99.90;;;;;;4127632;28;20038;-81
2021/04/28 03:13:47;;;;;;;16.25;8.93;;;2.00;99.90;;;;;;4164625;28;20079;-80
2021/04/28 03:15:49;;;;;;;10.85;8.68;;;2.00;99.90;;;;;;4145242;28;20033;-80
2021/04/28 03:17:50;;;;;;;13.77;10.18;;;1.90;99.90;;;;;;4128922;28;20043;-81
2021/04/28 03:19:55;;;;;;;17.33;8.70;;;1.90;99.90;;;;;;4145283;28;20140;-81
2021/04/28 03:21:56;;;;;;;14.73;9.85;;;1.90;99.90;;;;;;4143015;28;20049;-82
2021/04/28 03:23:57;;;;;;;11.48;9.10;;;1.80;99.90;;;;;;4160945;28;20516;-82
2021/04/28 03:25:59;;;;;;;13.30;9.07;;;1.70;99.90;;;;;;4145268;28;20129;-82
2021/04/28 03:27:59;;;;;;;10.50;8.48;;;1.70;99.90;;;;;;4161511;28;20113;-81
2021/04/28 03:30:00;;;;;;;12.80;8.70;;;1.60;99.90;;;;;;4146133;28;21036;-81
2021/04/28 03:32:01;;;;;;;14.00;9.57;;;1.60;99.90;;;;;;4128728;28;20049;-80
2021/04/28 03:34:02;;;;;;;10.48;8.98;;;1.50;99.90;;;;;;4144393;28;20496;-80
2021/04/28 03:36:04;;;;;;;12.40;8.75;;;1.50;99.90;;;;;;4145177;28;20517;-81
2021/04/28 03:38:05;;;;;;;14.00;10.30;;;1.50;99.90;;;;;;4146383;28;20068;-81
2021/04/28 03:40:07;;;;;;;11.05;9.40;;;1.50;99.90;;;;;;4145037;28;20029;-81
2021/04/28 03:42:08;;;;;;;17.67;10.10;;;1.50;99.90;;;;;;4144867;28;20029;-81
2021/04/28 03:44:09;;;;;;;11.27;9.45;;;1.50;99.90;;;;;;4145026;28;20038;-81
2021/04/28 03:46:10;;;;;;;14.48;9.48;;;1.40;99.90;;;;;;4144233;28;20033;-81
2021/04/28 03:48:11;;;;;;;11.73;9.18;;;1.40;99.90;;;;;;4145004;28;20041;-81
2021/04/28 03:50:12;;;;;;;14.60;9.15;;;1.40;99.90;;;;;;4145147;28;20461;-81
2021/04/28 03:52:13;;;;;;;13.70;8.40;;;1.40;99.90;;;;;;4144925;28;20477;-81
2021/04/28 03:54:15;;;;;;;12.05;8.50;;;1.40;99.90;;;;;;4161184;28;20088;-81
2021/04/28 03:56:16;;;;;;;12.50;8.65;;;1.40;99.90;;;;;;4147207;28;20124;-81
2021/04/28 03:58:16;;;;;;;15.15;9.73;;;1.40;99.90;;;;;;4148022;28;20046;-80
2021/04/28 04:00:18;;;;;;;12.40;9.35;;;1.50;99.90;;;;;;4147238;28;20073;-80
2021/04/28 04:02:19;;;;;;;13.40;10.55;;;1.50;99.90;;;;;;4149317;28;20037;-80
2021/04/28 04:04:20;;;;;;;11.30;9.63;;;1.60;99.90;;;;;;4149202;28;20030;-80
2021/04/28 04:06:21;;;;;;;22.08;10.35;;;1.50;99.90;;;;;;4147486;28;20065;-79
2021/04/28 04:08:23;;;;;;;12.20;9.65;;;1.50;99.90;;;;;;4147553;28;20038;-80
2021/04/28 04:10:23;;;;;;;16.00;9.88;;;1.50;99.90;;;;;;4146805;28;20030;-80
2021/04/28 04:12:24;;;;;;;13.80;10.38;;;1.50;99.90;;;;;;4146784;28;20026;-80
2021/04/28 04:14:25;;;;;;;13.55;8.77;;;1.40;99.90;;;;;;4144034;28;20034;-81
2021/04/28 04:16:26;;;;;;;14.98;9.00;;;1.40;99.90;;;;;;4148075;28;20037;-80
2021/04/28 04:18:27;;;;;;;15.05;9.98;;;1.50;99.90;;;;;;4147702;28;20103;-81
2021/04/28 04:20:28;;;;;;;15.88;10.02;;;1.50;99.90;;;;;;4164210;28;20127;-81
2021/04/28 04:22:29;;;;;;;13.20;9.95;;;1.50;99.90;;;;;;4148045;28;20497;-81
2021/04/28 04:24:30;;;;;;;10.40;8.35;;;1.50;99.90;;;;;;4147795;28;20120;-81
2021/04/28 04:26:30;;;;;;;12.98;9.18;;;1.60;99.90;;;;;;4149014;28;20026;-80
2021/04/28 04:28:31;;;;;;;14.52;9.48;;;1.60;99.90;;;;;;4147781;28;20113;-81
2021/04/28 04:30:32;;;;;;;11.02;8.73;;;1.70;99.90;;;;;;4147885;28;20041;-81
2021/04/28 04:32:33;;;;;;;16.92;10.63;;;1.80;99.90;;;;;;4147699;28;20060;-81
2021/04/28 04:34:33;;;;;;;13.40;9.70;;;1.80;99.90;;;;;;4173407;28;20495;-81
2021/04/28 04:36:34;;;;;;;14.23;10.27;;;1.90;99.90;;;;;;4147645;28;20104;-81
2021/04/28 04:38:35;;;;;;;17.33;10.30;;;1.90;99.90;;;;;;4147705;28;20045;-81
2021/04/28 04:40:37;;;;;;;14.18;10.43;;;1.90;99.90;;;;;;4147337;28;20374;-81
2021/04/28 04:42:38;;;;;;;13.73;10.07;;;1.90;99.90;;;;;;4158111;28;20037;-80
2021/04/28 04:44:39;;;;;;;13.32;9.23;;;2.00;99.90;;;;;;4154928;28;20040;-80
2021/04/28 04:46:39;;;;;;;12.52;9.25;;;2.00;99.90;;;;;;4119445;28;20042;-80
2021/04/28 04:48:40;;;;;;;12.52;9.75;;;2.00;99.90;;;;;;4159774;28;20022;-81
2021/04/28 04:50:41;;;;;;;13.45;10.25;;;2.10;99.90;;;;;;4129425;28;20038;-78
2021/04/28 04:52:42;;;;;;;17.65;9.55;;;2.10;99.90;;;;;;4162334;28;20049;-80
2021/04/28 04:54:43;;;;;;;12.10;8.43;;;2.10;99.90;;;;;;4146039;28;20469;-81
2021/04/28 04:56:44;;;;;;;11.88;9.38;;;2.30;99.90;;;;;;4153346;28;20030;-80
2021/04/28 04:58:45;;;;;;;13.43;8.57;;;2.30;99.90;;;;;;4159822;28;20073;-80
2021/04/28 05:00:46;;;;;;;11.13;8.52;;;2.50;99.90;;;;;;4164011;28;20044;-78
2021/04/28 05:02:46;;;;;;;11.52;8.30;;;2.60;99.90;;;;;;4144706;28;20485;-81
2021/04/28 05:04:47;;;;;;;11.23;8.68;;;2.80;99.90;;;;;;4161259;28;20029;-81
2021/04/28 05:06:48;;;;;;;10.77;8.63;;;2.90;99.90;;;;;;4144602;28;20371;-81
2021/04/28 05:08:49;;;;;;;12.23;7.50;;;3.00;99.90;;;;;;4172478;28;20641;-81
2021/04/28 05:10:50;;;;;;;17.27;8.57;;;3.10;99.90;;;;;;4162698;28;20037;-81
2021/04/28 05:12:51;;;;;;;11.52;8.30;;;3.20;99.90;;;;;;4123088;28;20034;-81
2021/04/28 05:14:51;;;;;;;10.25;8.00;;;3.30;99.90;;;;;;4140767;28;20034;-80
2021/04/28 05:16:52;;;;;;;11.20;7.93;;;3.40;99.90;;;;;;4146427;28;20022;-81
2021/04/28 05:18:53;;;;;;;15.48;7.18;;;3.60;99.90;;;;;;4162359;28;20026;-80
2021/04/28 05:20:54;;;;;;;15.50;7.82;;;3.60;99.90;;;;;;4145583;28;20036;-80
2021/04/28 05:22:55;;;;;;;13.65;7.40;;;3.70;99.90;;;;;;4146207;28;20030;-82
2021/04/28 05:24:56;;;;;;;10.23;7.47;;;3.80;99.90;;;;;;4147739;28;20045;-79
2021/04/28 05:26:57;;;;;;;12.98;7.38;;;3.90;99.90;;;;;;4147541;28;20026;-82
2021/04/28 05:28:58;;;;;;;13.18;8.15;;;3.90;99.90;;;;;;4146021;28;20029;-80
2021/04/28 05:30:59;;;;;;;11.93;7.75;;;4.00;99.90;;;;;;4138364;28;20112;-80
2021/04/28 05:33:00;;;;;;;11.15;7.65;;;4.00;99.90;;;;;;4138583;28;20267;-80
2021/04/28 05:35:01;;;;;;;16.35;7.80;;;4.00;99.90;;;;;;4146443;28;20052;-77
2021/04/28 05:37:04;;;;;;;9.45;7.38;;;4.10;99.90;;;;;;4136432;28;20522;-80
2021/04/28 05:39:05;;;;;;;15.13;7.38;;;4.20;99.90;;;;;;4135585;28;20561;-80
2021/04/28 05:41:06;;;;;;;29.17;7.80;;;4.20;99.90;;;;;;4136930;28;20045;-80
2021/04/28 05:43:07;;;;;;;10.77;7.47;;;4.40;99.90;;;;;;4149962;28;20469;-79
2021/04/28 05:45:10;;;;;;;10.88;7.28;;;4.50;99.90;;;;;;4136750;28;20034;-79
2021/04/28 05:47:11;;;;;;;;;;;4.60;99.90;;;;;;4146228;28;20034;-80
2021/04/28 05:49:14;;;;;;;9.90;7.60;;;4.80;99.90;;;;;;4164832;28;19959;-81
2021/04/28 05:51:15;;;;;;;9.48;7.20;;;5.00;99.90;;;;;;4130002;28;20117;-80
2021/04/28 05:53:16;;;;;;;9.60;7.55;;;5.20;99.90;;;;;;4136285;28;20184;-79
2021/04/28 05:55:17;;;;;;;13.60;7.38;;;5.40;99.90;;;;;;4149648;28;20097;-79
2021/04/28 05:57:18;;;;;;;9.93;7.07;;;5.60;99.90;;;;;;4143950;28;20041;-80
2021/04/28 05:59:19;;;;;;;13.25;7.97;;;5.80;99.90;;;;;;4129178;28;20038;-80
2021/04/28 06:01:20;;;;;;;17.23;8.27;;;6.00;99.90;;;;;;4145856;28;20038;-80
2021/04/28 06:03:21;;;;;;;13.70;8.35;;;6.10;99.90;;;;;;4146231;28;20034;-77
2021/04/28 06:05:22;;;;;;;14.77;7.38;;;6.30;99.90;;;;;;4146135;28;20440;-79
2021/04/28 06:07:23;;;;;;;10.85;6.93;;;6.40;99.90;;;;;;4146423;28;20038;-80
2021/04/28 06:09:24;;;;;;;10.20;7.05;;;5.90;99.90;;;;;;4130159;28;20036;-81
2021/04/28 06:11:25;;;;;;;17.55;7.35;;;6.70;99.90;;;;;;4145877;28;20025;-80
2021/04/28 06:13:26;;;;;;;13.70;7.25;;;6.80;99.90;;;;;;4129927;28;20034;-81
2021/04/28 06:15:27;;;;;;;13.18;7.95;;;6.90;99.90;;;;;;4130032;28;20121;-81
2021/04/28 06:17:28;;;;;;;13.93;7.70;;;7.00;99.90;;;;;;4162527;28;20086;-79
2021/04/28 06:19:29;;;;;;;13.27;7.82;;;7.20;99.90;;;;;;4119611;28;20043;-80
2021/04/28 06:21:29;;;;;;;11.70;6.40;;;7.30;99.90;;;;;;4146343;28;20034;-80
2021/04/28 06:23:30;;;;;;;13.73;7.18;;;7.40;99.90;;;;;;4145581;28;20412;-81
2021/04/28 06:25:31;;;;;;;11.07;7.35;;;7.50;99.90;;;;;;4145868;28;20033;-81
2021/04/28 06:27:32;;;;;;;10.40;7.32;;;7.60;99.90;;;;;;4161328;28;20057;-80
2021/04/28 06:29:33;;;;;;;15.60;8.07;;;7.80;99.90;;;;;;4158380;28;20040;-80
2021/04/28 06:31:34;;;;;;;11.98;8.02;;;7.90;99.90;;;;;;4146919;28;20034;-80
2021/04/28 06:33:35;;;;;;;18.58;7.47;;;8.00;99.90;;;;;;4141569;28;20037;-80
2021/04/28 06:35:37;;;;;;;12.05;7.82;;;8.10;99.90;;;;;;4143929;28;20085;-79
2021/04/28 06:37:38;;;;;;;11.38;7.75;;;8.20;99.90;;;;;;4154971;28;20485;-79
2021/04/28 06:39:40;;;;;;;10.90;7.45;;;8.30;99.90;;;;;;4160978;28;20163;-80
2021/04/28 06:41:42;;;;;;;13.80;7.65;;;8.30;99.90;;;;;;4143925;28;20034;-78
2021/04/28 06:43:43;;;;;;;11.85;7.60;;;8.40;99.90;;;;;;4144604;28;20087;-81
2021/04/28 06:45:44;;;;;;;10.40;7.07;;;8.40;99.90;;;;;;4145889;28;20489;-81
2021/04/28 06:47:45;;;;;;;12.40;7.63;;;8.50;99.90;;;;;;4145167;28;20041;-80
2021/04/28 06:49:46;;;;;;;11.05;7.93;;;8.70;99.90;;;;;;4144087;28;20149;-79
2021/04/28 06:51:46;;;;;;;20.60;7.88;;;8.70;99.90;;;;;;4139734;28;20030;-81
2021/04/28 06:53:47;;;;;;;13.48;7.35;;;8.90;99.90;;;;;;4145034;28;20077;-80
2021/04/28 06:55:49;;;;;;;12.13;8.98;;;9.10;99.90;;;;;;4144906;28;20034;-80
2021/04/28 06:57:54;;;;;;;13.32;8.57;;;9.30;99.90;;;;;;4143855;28;20038;-79
2021/04/28 06:59:55;;;;;;;16.08;8.77;;;9.40;99.90;;;;;;4134221;28;20046;-80
2021/04/28 07:01:56;;;;;;;11.77;8.35;;;9.50;99.90;;;;;;4143756;28;20045;-81
2021/04/28 07:03:57;;;;;;;14.07;7.85;;;9.50;99.90;;;;;;4143739;28;20034;-82
2021/04/28 07:05:58;;;;;;;21.42;9.20;;;9.50;99.90;;;;;;4159565;28;20029;-81
2021/04/28 07:07:58;;;;;;;10.18;7.43;;;9.60;99.90;;;;;;4144190;28;20049;-80
2021/04/28 07:09:59;;;;;;;8.55;7.20;;;9.70;99.90;;;;;;4159162;28;20187;-79
2021/04/28 07:12:00;;;;;;;11.38;8.43;;;9.80;99.90;;;;;;4144060;28;20030;-81
2021/04/28 07:14:01;;;;;;;12.50;7.60;;;9.80;99.90;;;;;;4143612;28;20069;-79
2021/04/28 07:16:02;;;;;;;11.63;8.15;;;9.70;99.90;;;;;;4119177;28;20030;-78
2021/04/28 07:18:03;;;;;;;13.45;7.40;;;9.80;99.90;;;;;;4141028;28;20555;-81
2021/04/28 07:20:07;;;;;;;8.52;7.00;;;9.90;99.90;;;;;;4149891;28;20460;-79
2021/04/28 07:22:08;;;;;;;13.90;7.90;;;10.00;99.90;;;;;;4143748;28;20160;-81
2021/04/28 07:24:10;;;;;;;9.52;8.45;;;10.10;99.90;;;;;;4146067;28;20659;-80
2021/04/28 07:26:12;;;;;;;9.38;7.75;;;10.10;99.90;;;;;;4144296;28;20053;-81
2021/04/28 07:28:12;;;;;;;9.85;7.72;;;10.10;99.90;;;;;;4142925;28;20026;-81
2021/04/28 07:30:16;;;;;;;9.93;7.85;;;10.10;99.90;;;;;;4147444;28;20068;-81
2021/04/28 07:32:18;;;;;;;11.82;7.95;;;10.10;99.90;;;;;;4133745;28;20057;-81
2021/04/28 07:34:18;;;;;;;10.27;8.90;;;10.20;99.90;;;;;;4170107;28;20044;-80
2021/04/28 07:36:19;;;;;;;10.25;8.10;;;10.20;99.90;;;;;;4127471;28;20528;-81
2021/04/28 07:38:20;;;;;;;9.40;7.15;;;10.20;99.90;;;;;;4166784;28;20057;-80
2021/04/28 07:40:22;;;;;;;10.63;8.13;;;10.30;99.90;;;;;;4124264;28;20482;-77
2021/04/28 07:42:23;;;;;;;10.90;7.80;;;10.40;99.90;;;;;;4139761;28;20615;-80
2021/04/28 07:44:25;;;;;;;15.25;8.55;;;10.50;99.90;;;;;;4143075;28;20088;-81
2021/04/28 07:46:27;;;;;;;10.48;7.38;;;10.70;99.90;;;;;;4143592;28;20038;-81
2021/04/28 07:48:28;;;;;;;13.57;8.35;;;10.70;99.90;;;;;;4143363;28;20192;-80
2021/04/28 07:50:29;;;;;;;12.35;8.75;;;10.90;99.90;;;;;;4148909;28;20049;-80
2021/04/28 07:52:31;;;;;;;16.25;9.15;;;10.90;99.90;;;;;;4126380;28;20054;-80
2021/04/28 07:54:32;;;;;;;14.63;8.50;;;11.00;99.90;;;;;;4174570;28;20037;-81
2021/04/28 07:56:33;;;;;;;16.48;8.05;;;11.00;99.90;;;;;;4132971;28;20504;-81
2021/04/28 07:58:34;;;;;;;12.48;8.65;;;11.00;99.90;;;;;;4142833;28;20049;-81
2021/04/28 08:00:35;;;;;;;11.02;8.35;;;11.00;99.90;;;;;;4152391;28;20479;-81
2021/04/28 08:02:36;;;;;;;12.18;8.52;;;11.10;99.90;;;;;;4143498;28;20729;-80
2021/04/28 08:04:38;;;;;;;9.32;8.35;;;11.10;99.90;;;;;;4130649;28;20482;-81
2021/04/28 08:06:39;;;;;;;18.73;8.38;;;11.10;99.90;;;;;;4134228;28;20125;-79
2021/04/28 08:08:40;;;;;;;9.75;7.85;;;11.10;99.90;;;;;;4141625;28;20876;-81
2021/04/28 08:10:41;;;;;;;14.02;8.30;;;11.10;99.90;;;;;;4156399;28;20049;-79
2021/04/28 08:12:43;;;;;;;15.60;9.07;;;11.20;99.90;;;;;;4167644;28;20129;-80
2021/04/28 08:14:44;;;;;;;10.70;7.72;;;11.20;99.90;;;;;;4166637;28;20037;-81
2021/04/28 08:16:44;;;;;;;9.98;8.90;;;11.30;99.90;;;;;;4136033;28;20026;-81
2021/04/28 08:18:47;;;;;;;10.68;8.05;;;11.40;99.90;;;;;;4135611;28;20042;-81
2021/04/28 08:20:48;;;;;;;10.45;8.40;;;11.60;99.90;;;;;;4143379;28;20034;-80
2021/04/28 08:22:49;;;;;;;11.45;8.40;;;11.70;99.90;;;;;;4128149;28;20038;-82
2021/04/28 08:24:50;;;;;;;10.13;8.50;;;11.80;99.90;;;;;;4132449;28;20034;-80
2021/04/28 08:26:52;;;;;;;11.23;8.43;;;12.00;99.90;;;;;;4131966;28;20030;-82
2021/04/28 08:28:56;;;;;;;18.83;8.45;;;12.10;99.90;;;;;;4150554;28;20038;-79
2021/04/28 08:30:57;;;;;;;13.15;8.93;;;12.20;99.90;;;;;;4142342;28;20112;-81
2021/04/28 08:32:58;;;;;;;13.82;8.75;;;12.30;99.90;;;;;;4142545;28;20033;-79
2021/04/28 08:34:59;;;;;;;12.18;9.25;;;12.40;99.90;;;;;;4132564;28;20051;-80
2021/04/28 08:37:00;;;;;;;9.75;8.75;;;12.40;99.90;;;;;;4129556;28;20057;-80
2021/04/28 08:39:07;;;;;;;14.35;9.10;;;12.50;99.90;;;;;;4124322;28;21334;-77
2021/04/28 08:41:11;;;;;;;14.32;9.20;;;12.60;99.90;;;;;;4142872;28;20030;-79
2021/04/28 08:43:11;;;;;;;12.60;8.60;;;12.50;99.90;;;;;;4163706;28;20125;-79
2021/04/28 08:45:13;;;;;;;10.60;8.88;;;12.60;99.90;;;;;;4133806;28;20041;-79
2021/04/28 08:47:14;;;;;;;11.13;8.52;;;12.70;99.90;;;;;;4158424;28;20428;-79
2021/04/28 08:49:15;;;;;;;18.05;9.13;;;12.80;99.50;;;;;;4134408;28;20035;-80
2021/04/28 08:51:18;;;;;;;11.93;8.95;;;13.00;99.90;;;;;;4136379;28;20403;-80
2021/04/28 08:53:19;;;;;;;13.40;8.93;;;13.10;98.20;;;;;;4146186;28;20033;-80
2021/04/28 08:55:20;;;;;;;15.13;10.32;;;13.00;95.70;;;;;;4151237;28;20057;-81
2021/04/28 08:57:21;;;;;;;11.77;8.82;;;13.10;97.70;;;;;;4133623;28;20046;-77
2021/04/28 08:59:22;;;;;;;12.15;9.30;;;13.20;96.70;;;;;;4149640;28;20106;-78
2021/04/28 09:01:34;;;;;;;10.30;8.35;;;13.40;97.10;;;;;;4144343;28;20045;-78
2021/04/28 09:03:39;;;;;;;11.30;8.73;;;13.70;94.00;;;;;;4145261;28;20033;-79
2021/04/28 09:05:41;;;;;;;12.32;9.55;;;14.00;94.40;;;;;;4138177;28;20078;-79
2021/04/28 09:07:44;;;;;;;10.65;8.85;;;14.30;93.50;;;;;;4137033;28;20038;-78
2021/04/28 09:10:08;;;;;;;15.75;9.48;;;14.40;90.40;;;;;;4154168;28;20351;-79
2021/04/28 09:12:11;;;;;;;15.68;9.73;;;14.30;88.90;;;;;;4138648;28;20133;-79
2021/04/28 09:14:18;;;;;;;15.13;9.18;;;14.70;90.60;;;;;;4144872;28;20468;-78
2021/04/28 09:16:19;;;;;;;10.63;9.55;;;14.90;87.40;;;;;;4138572;28;20038;-78
2021/04/28 09:18:35;;;;;;;11.50;9.27;;;15.20;82.20;;;;;;4156077;28;20048;-78
2021/04/28 09:20:39;;;;;;;12.30;9.63;;;15.60;80.20;;;;;;4139196;28;20033;-77
2021/04/28 09:22:48;;;;;;;13.52;9.68;;;15.60;78.80;;;;;;4153449;28;20034;-77
2021/04/28 09:24:54;;;;;;;12.35;8.65;;;15.40;79.60;;;;;;4144874;28;20045;-78
2021/04/28 09:26:58;;;;;;;10.98;9.65;;;15.80;80.90;;;;;;4137747;28;20038;-77
2021/04/28 09:28:58;;;;;;;12.80;9.63;;;16.40;84.00;;;;;;4144622;28;20037;-78
2021/04/28 09:31:08;;;;;;;15.40;8.98;;;16.70;81.30;;;;;;4136099;28;20512;-78
2021/04/28 09:33:10;;;;;;;12.63;9.10;;;16.60;74.40;;;;;;4138138;28;20058;-78
2021/04/28 09:35:20;;;;;;;16.33;10.15;;;16.40;72.60;;;;;;4137589;28;20030;-79
2021/04/28 09:37:21;;;;;;;10.57;9.55;;;16.40;72.50;;;;;;4132321;28;20049;-75
2021/04/28 09:39:22;;;;;;;12.68;10.27;;;16.30;75.40;;;;;;4133629;28;20120;-79
2021/04/28 09:41:32;;;;;;;12.50;10.40;;;16.40;74.60;;;;;;4152232;28;20551;-78
2021/04/28 09:43:37;;;;;;;11.90;8.85;;;16.20;72.10;;;;;;4147299;28;20036;-77
2021/04/28 09:45:47;;;;;;;12.95;9.23;;;16.40;72.10;;;;;;4145931;28;20048;-78
2021/04/28 09:47:50;;;;;;;12.88;10.10;;;16.60;77.40;;;;;;4145589;28;20037;-79
2021/04/28 09:50:00;;;;;;;;;;;;;;;;;;4146109;28;20045;-80
2021/04/28 09:52:02;;;;;;;10.90;9.80;;;17.40;67.70;;;;;;4161969;28;20012;-77
2021/04/28 09:54:16;;;;;;;11.13;9.55;;;17.40;67.50;;;;;;4145496;28;20030;-79
2021/04/28 09:56:17;;;;;;;;;;;17.30;66.60;;;;;;4158032;28;20030;-79
2021/04/28 09:58:18;;;;;;;14.07;10.23;;;17.20;68.20;;;;;;4140008;28;19918;-79
2021/04/28 10:00:25;;;;;;;16.40;10.27;;;17.30;67.70;;;;;;4140364;28;20065;-78
2021/04/28 10:02:31;;;;;;;11.57;10.35;;;17.30;66.60;;;;;;4127459;28;20038;-79
2021/04/28 10:04:32;;;;;;;12.98;10.13;;;17.60;66.10;;;;;;4125720;28;20054;-78
2021/04/28 10:06:49;;;;;;;13.48;9.90;;;17.70;65.20;;;;;;4143192;28;20485;-78
2021/04/28 10:08:50;;;;;;;14.20;10.07;;;17.90;66.70;;;;;;4143840;28;20081;-78
2021/04/28 10:10:52;;;;;;;10.88;9.77;;;18.30;66.80;;;;;;4144151;28;20489;-79
2021/04/28 10:12:58;;;;;;;11.05;9.77;;;;;;;;;;4160799;28;20342;-79
2021/04/28 10:14:59;;;;;;;13.57;10.57;;;;;;;;;;4143981;28;20057;-80
2021/04/28 10:17:03;;;;;;;15.73;9.43;;;19.70;60.80;;;;;;4144896;28;20065;-80
2021/04/28 10:19:04;;;;;;;11.50;9.60;;;20.20;59.30;;;;;;4145944;28;20620;-79
2021/04/28 10:21:05;;;;;;;12.50;10.23;;;20.30;58.10;;;;;;4158319;28;20041;-80
2021/04/28 10:23:20;;;;;;;10.60;9.48;;;20.70;58.80;;;;;;4160789;28;20116;-79
2021/04/28 10:25:21;;;;;;;10.82;9.75;;;21.00;61.00;;;;;;4135274;28;22361;-77
2021/04/28 10:27:23;;;;;;;12.15;10.90;;;21.00;59.30;;;;;;4144313;28;20096;-79
2021/04/28 10:29:25;;;;;;;11.77;10.13;;;20.40;56.40;;;;;;4144465;28;20030;-80
2021/04/28 10:31:27;;;;;;;15.10;10.57;;;20.20;56.70;;;;;;4144679;28;20670;-80
2021/04/28 10:33:29;;;;;;;14.38;9.88;;;19.50;56.00;;;;;;4135500;28;20034;-80